sensor_id;sensor_type;location;lat;lon;timestamp;P1;durP1;ratioP1;P2;durP2;ratioP2
21810;SDS011;11067;48.788;9.208;2022-08-07T00:00:22;3.03;;;1.53;;
21810;SDS011;11067;48.788;9.208;2022-08-07T00:02:48;1.50;;;1.40;;
21810;SDS011;11067;48.788;9.208;2022-08-07T00:05:13;3.20;;;1.42;;
21810;SDS011;11067;48.788;9.208;2022-08-07T00:07:39;1.55;;;1.45;;
21810;SDS011;11067;48.788;9.208;2022-08-07T00:10:05;2.17;;;1.60;;
21810;SDS011;11067;48.788;9.208;2022-08-07T00:12:31;2.63;;;1.70;;
21810;SDS011;11067;48.788;9.208;2022-08-07T00:14:57;3.83;;;1.52;;
21810;SDS011;11067;48.788;9.208;2022-08-07T00:17:23;1.58;;;1.48;;
21810;SDS011;11067;48.788;9.208;2022-08-07T00:19:48;2.37;;;1.30;;
21810;SDS011;11067;48.788;9.208;2022-08-07T00:22:14;3.07;;;1.60;;
21810;SDS011;11067;48.788;9.208;2022-08-07T00:24:40;1.50;;;1.37;;
21810;SDS011;11067;48.788;9.208;2022-08-07T00:27:06;1.58;;;1.35;;
21810;SDS011;11067;48.788;9.208;2022-08-07T00:29:32;2.45;;;1.50;;
21810;SDS011;11067;48.788;9.208;2022-08-07T00:31:57;2.60;;;1.40;;
21810;SDS011;11067;48.788;9.208;2022-08-07T00:34:26;1.63;;;1.50;;
21810;SDS011;11067;48.788;9.208;2022-08-07T00:36:52;1.45;;;1.25;;
21810;SDS011;11067;48.788;9.208;2022-08-07T00:39:19;2.42;;;1.50;;
21810;SDS011;11067;48.788;9.208;2022-08-07T00:41:48;3.00;;;1.52;;
21810;SDS011;11067;48.788;9.208;2022-08-07T00:44:18;2.67;;;1.63;;
21810;SDS011;11067;48.788;9.208;2022-08-07T00:46:44;3.03;;;1.52;;
21810;SDS011;11067;48.788;9.208;2022-08-07T00:49:09;2.30;;;1.60;;
21810;SDS011;11067;48.788;9.208;2022-08-07T00:51:35;2.15;;;1.58;;
21810;SDS011;11067;48.788;9.208;2022-08-07T00:54:01;2.67;;;1.65;;
21810;SDS011;11067;48.788;9.208;2022-08-07T00:56:26;4.07;;;1.67;;
21810;SDS011;11067;48.788;9.208;2022-08-07T00:58:55;2.08;;;1.50;;
21810;SDS011;11067;48.788;9.208;2022-08-07T01:01:21;3.55;;;1.58;;
21810;SDS011;11067;48.788;9.208;2022-08-07T01:03:47;3.35;;;1.60;;
21810;SDS011;11067;48.788;9.208;2022-08-07T01:06:15;1.40;;;1.30;;
21810;SDS011;11067;48.788;9.208;2022-08-07T01:08:41;2.23;;;1.70;;
21810;SDS011;11067;48.788;9.208;2022-08-07T01:11:07;2.17;;;1.65;;
21810;SDS011;11067;48.788;9.208;2022-08-07T01:13:33;2.65;;;1.55;;
21810;SDS011;11067;48.788;9.208;2022-08-07T01:15:59;1.80;;;1.40;;
21810;SDS011;11067;48.788;9.208;2022-08-07T01:18:26;1.90;;;1.55;;
21810;SDS011;11067;48.788;9.208;2022-08-07T01:21:00;2.30;;;1.55;;
21810;SDS011;11067;48.788;9.208;2022-08-07T01:23:41;3.75;;;1.70;;
21810;SDS011;11067;48.788;9.208;2022-08-07T01:26:09;1.45;;;1.35;;
21810;SDS011;11067;48.788;9.208;2022-08-07T01:28:37;2.03;;;1.37;;
21810;SDS011;11067;48.788;9.208;2022-08-07T01:31:04;2.17;;;1.30;;
21810;SDS011;11067;48.788;9.208;2022-08-07T01:33:30;1.90;;;1.37;;
21810;SDS011;11067;48.788;9.208;2022-08-07T01:35:56;2.83;;;1.55;;
21810;SDS011;11067;48.788;9.208;2022-08-07T01:38:24;1.80;;;1.30;;
21810;SDS011;11067;48.788;9.208;2022-08-07T01:40:50;2.50;;;1.50;;
21810;SDS011;11067;48.788;9.208;2022-08-07T01:43:19;1.83;;;1.40;;
21810;SDS011;11067;48.788;9.208;2022-08-07T01:45:44;2.20;;;1.30;;
21810;SDS011;11067;48.788;9.208;2022-08-07T01:48:11;5.10;;;2.00;;
21810;SDS011;11067;48.788;9.208;2022-08-07T01:50:36;3.73;;;1.67;;
21810;SDS011;11067;48.788;9.208;2022-08-07T01:53:03;1.88;;;1.40;;
21810;SDS011;11067;48.788;9.208;2022-08-07T01:55:35;2.50;;;1.50;;
21810;SDS011;11067;48.788;9.208;2022-08-07T01:58:07;1.90;;;1.40;;
21810;SDS011;11067;48.788;9.208;2022-08-07T02:00:34;3.13;;;1.33;;
21810;SDS011;11067;48.788;9.208;2022-08-07T02:03:02;2.45;;;1.50;;
21810;SDS011;11067;48.788;9.208;2022-08-07T02:05:43;1.30;;;1.20;;
21810;SDS011;11067;48.788;9.208;2022-08-07T02:08:19;1.58;;;1.40;;
21810;SDS011;11067;48.788;9.208;2022-08-07T02:10:48;2.47;;;1.50;;
21810;SDS011;11067;48.788;9.208;2022-08-07T02:13:17;2.15;;;1.20;;
21810;SDS011;11067;48.788;9.208;2022-08-07T02:15:46;2.10;;;1.23;;
21810;SDS011;11067;48.788;9.208;2022-08-07T02:18:12;2.10;;;1.40;;
21810;SDS011;11067;48.788;9.208;2022-08-07T02:20:40;2.40;;;1.50;;
21810;SDS011;11067;48.788;9.208;2022-08-07T02:23:07;2.30;;;1.30;;
21810;SDS011;11067;48.788;9.208;2022-08-07T02:25:34;1.40;;;1.30;;
21810;SDS011;11067;48.788;9.208;2022-08-07T02:28:02;2.08;;;1.48;;
21810;SDS011;11067;48.788;9.208;2022-08-07T02:30:28;1.83;;;1.50;;
21810;SDS011;11067;48.788;9.208;2022-08-07T02:32:55;1.67;;;1.50;;
21810;SDS011;11067;48.788;9.208;2022-08-07T02:35:23;2.25;;;1.60;;
21810;SDS011;11067;48.788;9.208;2022-08-07T02:37:49;3.00;;;1.40;;
21810;SDS011;11067;48.788;9.208;2022-08-07T02:40:17;3.30;;;1.50;;
21810;SDS011;11067;48.788;9.208;2022-08-07T02:42:42;2.50;;;1.50;;
21810;SDS011;11067;48.788;9.208;2022-08-07T02:45:11;2.10;;;1.60;;
21810;SDS011;11067;48.788;9.208;2022-08-07T02:47:39;3.20;;;1.77;;
21810;SDS011;11067;48.788;9.208;2022-08-07T02:50:04;1.87;;;1.50;;
21810;SDS011;11067;48.788;9.208;2022-08-07T02:52:32;1.60;;;1.50;;
21810;SDS011;11067;48.788;9.208;2022-08-07T02:55:03;2.72;;;1.58;;
21810;SDS011;11067;48.788;9.208;2022-08-07T02:57:32;2.67;;;1.60;;
21810;SDS011;11067;48.788;9.208;2022-08-07T03:00:01;2.42;;;1.50;;
21810;SDS011;11067;48.788;9.208;2022-08-07T03:02:29;1.98;;;1.60;;
21810;SDS011;11067;48.788;9.208;2022-08-07T03:04:55;2.00;;;1.40;;
21810;SDS011;11067;48.788;9.208;2022-08-07T03:07:24;2.05;;;1.50;;
21810;SDS011;11067;48.788;9.208;2022-08-07T03:09:51;2.03;;;1.60;;
21810;SDS011;11067;48.788;9.208;2022-08-07T03:12:17;2.63;;;1.45;;
21810;SDS011;11067;48.788;9.208;2022-08-07T03:14:43;2.80;;;1.58;;
21810;SDS011;11067;48.788;9.208;2022-08-07T03:17:09;2.70;;;1.38;;
21810;SDS011;11067;48.788;9.208;2022-08-07T03:19:35;2.00;;;1.55;;
21810;SDS011;11067;48.788;9.208;2022-08-07T03:22:02;1.85;;;1.63;;
21810;SDS011;11067;48.788;9.208;2022-08-07T03:24:29;2.63;;;1.60;;
21810;SDS011;11067;48.788;9.208;2022-08-07T03:26:59;2.90;;;1.70;;
21810;SDS011;11067;48.788;9.208;2022-08-07T03:29:27;2.83;;;1.77;;
21810;SDS011;11067;48.788;9.208;2022-08-07T03:31:58;2.75;;;1.50;;
21810;SDS011;11067;48.788;9.208;2022-08-07T03:34:26;1.70;;;1.50;;
21810;SDS011;11067;48.788;9.208;2022-08-07T03:36:53;2.33;;;1.70;;
21810;SDS011;11067;48.788;9.208;2022-08-07T03:39:20;3.15;;;1.80;;
21810;SDS011;11067;48.788;9.208;2022-08-07T03:41:47;1.90;;;1.55;;
21810;SDS011;11067;48.788;9.208;2022-08-07T03:44:13;2.87;;;1.50;;
21810;SDS011;11067;48.788;9.208;2022-08-07T03:46:39;1.60;;;1.33;;
21810;SDS011;11067;48.788;9.208;2022-08-07T03:49:06;3.80;;;1.75;;
21810;SDS011;11067;48.788;9.208;2022-08-07T03:51:32;3.35;;;1.63;;
21810;SDS011;11067;48.788;9.208;2022-08-07T03:53:58;1.95;;;1.50;;
21810;SDS011;11067;48.788;9.208;2022-08-07T03:56:24;1.77;;;1.60;;
21810;SDS011;11067;48.788;9.208;2022-08-07T03:58:51;2.58;;;1.73;;
21810;SDS011;11067;48.788;9.208;2022-08-07T04:01:17;3.53;;;1.57;;
21810;SDS011;11067;48.788;9.208;2022-08-07T04:03:44;1.65;;;1.50;;
21810;SDS011;11067;48.788;9.208;2022-08-07T04:06:11;2.83;;;1.73;;
21810;SDS011;11067;48.788;9.208;2022-08-07T04:08:38;1.80;;;1.33;;
21810;SDS011;11067;48.788;9.208;2022-08-07T04:11:05;2.17;;;1.53;;
21810;SDS011;11067;48.788;9.208;2022-08-07T04:13:33;1.97;;;1.60;;
21810;SDS011;11067;48.788;9.208;2022-08-07T04:15:59;2.65;;;1.60;;
21810;SDS011;11067;48.788;9.208;2022-08-07T04:18:24;1.60;;;1.50;;
21810;SDS011;11067;48.788;9.208;2022-08-07T04:20:50;1.87;;;1.50;;
21810;SDS011;11067;48.788;9.208;2022-08-07T04:23:16;2.37;;;1.60;;
21810;SDS011;11067;48.788;9.208;2022-08-07T04:25:42;1.87;;;1.63;;
21810;SDS011;11067;48.788;9.208;2022-08-07T04:28:08;2.05;;;1.50;;
21810;SDS011;11067;48.788;9.208;2022-08-07T04:30:34;2.20;;;1.60;;
21810;SDS011;11067;48.788;9.208;2022-08-07T04:33:04;2.35;;;1.50;;
21810;SDS011;11067;48.788;9.208;2022-08-07T04:35:34;2.00;;;1.60;;
21810;SDS011;11067;48.788;9.208;2022-08-07T04:38:07;2.90;;;1.80;;
21810;SDS011;11067;48.788;9.208;2022-08-07T04:40:34;2.22;;;1.50;;
21810;SDS011;11067;48.788;9.208;2022-08-07T04:43:02;1.77;;;1.48;;
21810;SDS011;11067;48.788;9.208;2022-08-07T04:45:31;1.73;;;1.50;;
21810;SDS011;11067;48.788;9.208;2022-08-07T04:48:06;2.08;;;1.88;;
21810;SDS011;11067;48.788;9.208;2022-08-07T04:50:37;2.25;;;1.70;;
21810;SDS011;11067;48.788;9.208;2022-08-07T04:53:26;2.08;;;1.73;;
21810;SDS011;11067;48.788;9.208;2022-08-07T04:56:19;1.88;;;1.63;;
21810;SDS011;11067;48.788;9.208;2022-08-07T05:04:32;1.83;;;1.70;;
21810;SDS011;11067;48.788;9.208;2022-08-07T05:07:22;2.17;;;1.80;;
21810;SDS011;11067;48.788;9.208;2022-08-07T05:10:01;1.65;;;1.55;;
21810;SDS011;11067;48.788;9.208;2022-08-07T05:12:40;3.45;;;1.70;;
21810;SDS011;11067;48.788;9.208;2022-08-07T05:15:23;1.98;;;1.83;;
21810;SDS011;11067;48.788;9.208;2022-08-07T05:17:54;2.40;;;1.70;;
21810;SDS011;11067;48.788;9.208;2022-08-07T05:20:26;2.67;;;1.90;;
21810;SDS011;11067;48.788;9.208;2022-08-07T05:23:00;2.92;;;1.98;;
21810;SDS011;11067;48.788;9.208;2022-08-07T05:25:32;2.47;;;1.90;;
21810;SDS011;11067;48.788;9.208;2022-08-07T05:27:59;2.40;;;1.90;;
21810;SDS011;11067;48.788;9.208;2022-08-07T05:30:25;3.10;;;1.90;;
21810;SDS011;11067;48.788;9.208;2022-08-07T05:32:53;2.50;;;2.13;;
21810;SDS011;11067;48.788;9.208;2022-08-07T05:35:20;3.53;;;2.10;;
21810;SDS011;11067;48.788;9.208;2022-08-07T05:37:47;2.20;;;1.70;;
21810;SDS011;11067;48.788;9.208;2022-08-07T05:40:14;3.60;;;2.00;;
21810;SDS011;11067;48.788;9.208;2022-08-07T05:42:41;2.50;;;1.80;;
21810;SDS011;11067;48.788;9.208;2022-08-07T05:45:08;2.57;;;1.90;;
21810;SDS011;11067;48.788;9.208;2022-08-07T05:47:35;2.75;;;2.00;;
21810;SDS011;11067;48.788;9.208;2022-08-07T05:50:01;3.22;;;2.30;;
21810;SDS011;11067;48.788;9.208;2022-08-07T05:52:28;2.30;;;2.10;;
21810;SDS011;11067;48.788;9.208;2022-08-07T05:54:53;2.55;;;1.85;;
21810;SDS011;11067;48.788;9.208;2022-08-07T05:57:19;2.47;;;1.90;;
21810;SDS011;11067;48.788;9.208;2022-08-07T05:59:45;2.78;;;2.08;;
21810;SDS011;11067;48.788;9.208;2022-08-07T06:02:13;2.67;;;2.20;;
21810;SDS011;11067;48.788;9.208;2022-08-07T06:04:44;2.50;;;2.30;;
21810;SDS011;11067;48.788;9.208;2022-08-07T06:07:15;2.80;;;2.30;;
21810;SDS011;11067;48.788;9.208;2022-08-07T06:09:41;3.95;;;2.67;;
21810;SDS011;11067;48.788;9.208;2022-08-07T06:12:08;3.75;;;2.53;;
21810;SDS011;11067;48.788;9.208;2022-08-07T06:14:34;3.88;;;2.50;;
21810;SDS011;11067;48.788;9.208;2022-08-07T06:16:59;3.07;;;2.30;;
21810;SDS011;11067;48.788;9.208;2022-08-07T06:19:26;3.70;;;2.45;;
21810;SDS011;11067;48.788;9.208;2022-08-07T06:21:53;3.80;;;2.50;;
21810;SDS011;11067;48.788;9.208;2022-08-07T06:24:20;3.28;;;2.30;;
21810;SDS011;11067;48.788;9.208;2022-08-07T06:26:45;2.60;;;2.20;;
21810;SDS011;11067;48.788;9.208;2022-08-07T06:29:11;3.15;;;2.40;;
21810;SDS011;11067;48.788;9.208;2022-08-07T06:31:37;2.80;;;2.37;;
21810;SDS011;11067;48.788;9.208;2022-08-07T06:34:02;3.80;;;2.33;;
21810;SDS011;11067;48.788;9.208;2022-08-07T06:36:28;3.40;;;2.65;;
21810;SDS011;11067;48.788;9.208;2022-08-07T06:38:54;2.63;;;2.42;;
21810;SDS011;11067;48.788;9.208;2022-08-07T06:41:39;2.80;;;2.50;;
21810;SDS011;11067;48.788;9.208;2022-08-07T06:44:08;3.77;;;2.63;;
21810;SDS011;11067;48.788;9.208;2022-08-07T06:46:36;3.50;;;2.53;;
21810;SDS011;11067;48.788;9.208;2022-08-07T06:49:02;2.80;;;2.50;;
21810;SDS011;11067;48.788;9.208;2022-08-07T06:51:28;3.30;;;2.50;;
21810;SDS011;11067;48.788;9.208;2022-08-07T06:53:56;3.35;;;2.70;;
21810;SDS011;11067;48.788;9.208;2022-08-07T06:56:27;4.10;;;2.40;;
21810;SDS011;11067;48.788;9.208;2022-08-07T06:59:07;4.25;;;2.83;;
21810;SDS011;11067;48.788;9.208;2022-08-07T07:01:36;3.00;;;2.70;;
21810;SDS011;11067;48.788;9.208;2022-08-07T07:04:03;3.15;;;2.85;;
21810;SDS011;11067;48.788;9.208;2022-08-07T07:06:30;3.23;;;2.93;;
21810;SDS011;11067;48.788;9.208;2022-08-07T07:09:14;5.78;;;2.83;;
21810;SDS011;11067;48.788;9.208;2022-08-07T07:14:26;4.47;;;3.00;;
21810;SDS011;11067;48.788;9.208;2022-08-07T07:16:55;4.22;;;3.03;;
21810;SDS011;11067;48.788;9.208;2022-08-07T07:19:28;4.68;;;2.92;;
21810;SDS011;11067;48.788;9.208;2022-08-07T07:21:57;5.10;;;3.13;;
21810;SDS011;11067;48.788;9.208;2022-08-07T07:24:23;3.28;;;2.88;;
21810;SDS011;11067;48.788;9.208;2022-08-07T07:26:50;3.50;;;2.75;;
21810;SDS011;11067;48.788;9.208;2022-08-07T07:29:22;3.03;;;2.43;;
21810;SDS011;11067;48.788;9.208;2022-08-07T07:31:51;3.42;;;2.10;;
21810;SDS011;11067;48.788;9.208;2022-08-07T07:34:21;2.92;;;2.28;;
21810;SDS011;11067;48.788;9.208;2022-08-07T07:36:53;2.90;;;2.07;;
21810;SDS011;11067;48.788;9.208;2022-08-07T07:39:20;2.53;;;2.20;;
21810;SDS011;11067;48.788;9.208;2022-08-07T07:41:48;3.33;;;2.08;;
21810;SDS011;11067;48.788;9.208;2022-08-07T07:44:15;2.40;;;2.00;;
21810;SDS011;11067;48.788;9.208;2022-08-07T07:46:42;2.85;;;2.00;;
21810;SDS011;11067;48.788;9.208;2022-08-07T07:49:10;2.63;;;1.95;;
21810;SDS011;11067;48.788;9.208;2022-08-07T07:51:38;2.65;;;1.90;;
21810;SDS011;11067;48.788;9.208;2022-08-07T07:54:06;3.40;;;1.60;;
21810;SDS011;11067;48.788;9.208;2022-08-07T07:56:32;1.90;;;1.70;;
21810;SDS011;11067;48.788;9.208;2022-08-07T07:58:59;1.88;;;1.77;;
21810;SDS011;11067;48.788;9.208;2022-08-07T08:01:29;2.10;;;1.90;;
21810;SDS011;11067;48.788;9.208;2022-08-07T08:03:57;1.65;;;1.55;;
21810;SDS011;11067;48.788;9.208;2022-08-07T08:06:29;2.05;;;1.55;;
21810;SDS011;11067;48.788;9.208;2022-08-07T08:08:57;1.67;;;1.58;;
21810;SDS011;11067;48.788;9.208;2022-08-07T08:11:26;1.67;;;1.50;;
21810;SDS011;11067;48.788;9.208;2022-08-07T08:13:53;2.67;;;1.50;;
21810;SDS011;11067;48.788;9.208;2022-08-07T08:16:19;1.63;;;1.43;;
21810;SDS011;11067;48.788;9.208;2022-08-07T08:18:48;2.17;;;1.40;;
21810;SDS011;11067;48.788;9.208;2022-08-07T08:21:18;1.77;;;1.50;;
21810;SDS011;11067;48.788;9.208;2022-08-07T08:24:03;1.70;;;1.60;;
21810;SDS011;11067;48.788;9.208;2022-08-07T08:26:52;1.70;;;1.40;;
21810;SDS011;11067;48.788;9.208;2022-08-07T08:29:29;1.95;;;1.70;;
21810;SDS011;11067;48.788;9.208;2022-08-07T08:32:02;1.65;;;1.50;;
21810;SDS011;11067;48.788;9.208;2022-08-07T08:34:30;2.50;;;1.70;;
21810;SDS011;11067;48.788;9.208;2022-08-07T08:36:56;2.25;;;1.50;;
21810;SDS011;11067;48.788;9.208;2022-08-07T08:39:24;1.50;;;1.40;;
21810;SDS011;11067;48.788;9.208;2022-08-07T08:42:04;2.47;;;1.33;;
21810;SDS011;11067;48.788;9.208;2022-08-07T08:44:53;1.30;;;1.20;;
21810;SDS011;11067;48.788;9.208;2022-08-07T08:47:29;1.73;;;1.30;;
21810;SDS011;11067;48.788;9.208;2022-08-07T08:50:08;1.30;;;1.20;;
21810;SDS011;11067;48.788;9.208;2022-08-07T08:52:49;1.30;;;1.20;;
21810;SDS011;11067;48.788;9.208;2022-08-07T09:01:04;1.67;;;1.10;;
21810;SDS011;11067;48.788;9.208;2022-08-07T09:03:46;1.50;;;1.20;;
21810;SDS011;11067;48.788;9.208;2022-08-07T09:06:19;1.02;;;1.00;;
21810;SDS011;11067;48.788;9.208;2022-08-07T09:09:24;2.20;;;1.10;;
21810;SDS011;11067;48.788;9.208;2022-08-07T09:17:55;1.08;;;0.98;;
21810;SDS011;11067;48.788;9.208;2022-08-07T09:20:41;1.10;;;1.00;;
21810;SDS011;11067;48.788;9.208;2022-08-07T09:29:08;1.25;;;1.15;;
21810;SDS011;11067;48.788;9.208;2022-08-07T09:34:46;1.38;;;1.00;;
21810;SDS011;11067;48.788;9.208;2022-08-07T09:38:05;1.30;;;1.13;;
21810;SDS011;11067;48.788;9.208;2022-08-07T09:46:14;1.60;;;1.30;;
21810;SDS011;11067;48.788;9.208;2022-08-07T09:48:50;1.30;;;1.20;;
21810;SDS011;11067;48.788;9.208;2022-08-07T09:53:59;1.93;;;1.10;;
21810;SDS011;11067;48.788;9.208;2022-08-07T09:56:34;1.80;;;1.08;;
21810;SDS011;11067;48.788;9.208;2022-08-07T10:08:03;0.80;;;0.80;;
21810;SDS011;11067;48.788;9.208;2022-08-07T10:13:45;1.70;;;1.60;;
21810;SDS011;11067;48.788;9.208;2022-08-07T10:19:09;1.27;;;0.80;;
21810;SDS011;11067;48.788;9.208;2022-08-07T10:35:17;1.90;;;0.90;;
21810;SDS011;11067;48.788;9.208;2022-08-07T10:40:49;0.90;;;0.90;;
21810;SDS011;11067;48.788;9.208;2022-08-07T10:43:38;1.00;;;0.90;;
21810;SDS011;11067;48.788;9.208;2022-08-07T10:46:12;2.65;;;1.00;;
21810;SDS011;11067;48.788;9.208;2022-08-07T10:52:01;1.70;;;1.07;;
21810;SDS011;11067;48.788;9.208;2022-08-07T10:57:14;2.10;;;0.87;;
21810;SDS011;11067;48.788;9.208;2022-08-07T11:10:56;1.80;;;1.00;;
21810;SDS011;11067;48.788;9.208;2022-08-07T11:19:10;1.60;;;0.97;;
21810;SDS011;11067;48.788;9.208;2022-08-07T11:22:04;1.60;;;0.87;;
21810;SDS011;11067;48.788;9.208;2022-08-07T11:29:58;2.67;;;0.80;;
21810;SDS011;11067;48.788;9.208;2022-08-07T11:35:29;1.60;;;1.30;;
21810;SDS011;11067;48.788;9.208;2022-08-07T11:38:03;1.10;;;1.00;;
21810;SDS011;11067;48.788;9.208;2022-08-07T11:40:40;1.17;;;1.00;;
21810;SDS011;11067;48.788;9.208;2022-08-07T11:43:24;1.35;;;0.80;;
21810;SDS011;11067;48.788;9.208;2022-08-07T11:57:11;1.73;;;0.90;;
21810;SDS011;11067;48.788;9.208;2022-08-07T11:59:58;1.10;;;1.00;;
21810;SDS011;11067;48.788;9.208;2022-08-07T12:02:32;1.15;;;0.95;;
21810;SDS011;11067;48.788;9.208;2022-08-07T12:05:10;1.67;;;0.90;;
21810;SDS011;11067;48.788;9.208;2022-08-07T12:08:05;1.25;;;0.80;;
21810;SDS011;11067;48.788;9.208;2022-08-07T12:16:06;0.90;;;0.90;;
21810;SDS011;11067;48.788;9.208;2022-08-07T12:21:34;1.17;;;1.00;;
21810;SDS011;11067;48.788;9.208;2022-08-07T12:24:09;1.02;;;0.93;;
21810;SDS011;11067;48.788;9.208;2022-08-07T12:29:18;0.98;;;0.90;;
21810;SDS011;11067;48.788;9.208;2022-08-07T12:32:41;1.08;;;0.85;;
21810;SDS011;11067;48.788;9.208;2022-08-07T12:35:06;4.15;;;1.20;;
21810;SDS011;11067;48.788;9.208;2022-08-07T12:37:36;2.00;;;1.00;;
21810;SDS011;11067;48.788;9.208;2022-08-07T12:40:04;1.97;;;0.80;;
21810;SDS011;11067;48.788;9.208;2022-08-07T12:42:32;1.67;;;0.90;;
21810;SDS011;11067;48.788;9.208;2022-08-07T12:45:00;1.00;;;0.90;;
21810;SDS011;11067;48.788;9.208;2022-08-07T12:47:40;3.70;;;0.90;;
21810;SDS011;11067;48.788;9.208;2022-08-07T12:50:21;0.80;;;0.80;;
21810;SDS011;11067;48.788;9.208;2022-08-07T12:53:00;3.45;;;1.08;;
21810;SDS011;11067;48.788;9.208;2022-08-07T12:58:20;3.75;;;0.90;;
21810;SDS011;11067;48.788;9.208;2022-08-07T13:00:49;0.80;;;0.80;;
21810;SDS011;11067;48.788;9.208;2022-08-07T13:06:28;1.60;;;1.10;;
21810;SDS011;11067;48.788;9.208;2022-08-07T13:09:03;1.47;;;1.10;;
21810;SDS011;11067;48.788;9.208;2022-08-07T13:11:52;1.00;;;1.00;;
21810;SDS011;11067;48.788;9.208;2022-08-07T13:14:28;2.42;;;1.10;;
21810;SDS011;11067;48.788;9.208;2022-08-07T13:17:05;3.22;;;1.35;;
21810;SDS011;11067;48.788;9.208;2022-08-07T13:19:46;1.52;;;1.02;;
21810;SDS011;11067;48.788;9.208;2022-08-07T13:22:33;1.00;;;0.90;;
21810;SDS011;11067;48.788;9.208;2022-08-07T13:27:36;2.10;;;1.08;;
21810;SDS011;11067;48.788;9.208;2022-08-07T13:30:07;1.10;;;0.90;;
21810;SDS011;11067;48.788;9.208;2022-08-07T13:35:28;1.10;;;1.00;;
21810;SDS011;11067;48.788;9.208;2022-08-07T13:43:42;1.10;;;1.00;;
21810;SDS011;11067;48.788;9.208;2022-08-07T13:46:10;2.10;;;0.95;;
21810;SDS011;11067;48.788;9.208;2022-08-07T13:48:38;1.27;;;0.90;;
21810;SDS011;11067;48.788;9.208;2022-08-07T13:51:09;2.40;;;1.10;;
21810;SDS011;11067;48.788;9.208;2022-08-07T13:53:38;1.08;;;0.98;;
21810;SDS011;11067;48.788;9.208;2022-08-07T13:56:08;1.40;;;0.97;;
21810;SDS011;11067;48.788;9.208;2022-08-07T13:58:38;0.80;;;0.80;;
21810;SDS011;11067;48.788;9.208;2022-08-07T14:01:25;1.80;;;1.00;;
21810;SDS011;11067;48.788;9.208;2022-08-07T14:03:57;1.27;;;0.93;;
21810;SDS011;11067;48.788;9.208;2022-08-07T14:06:34;1.08;;;0.90;;
21810;SDS011;11067;48.788;9.208;2022-08-07T14:11:36;2.42;;;1.20;;
21810;SDS011;11067;48.788;9.208;2022-08-07T14:14:10;1.10;;;0.93;;
21810;SDS011;11067;48.788;9.208;2022-08-07T14:16:39;1.00;;;0.90;;
21810;SDS011;11067;48.788;9.208;2022-08-07T14:19:17;1.70;;;1.00;;
21810;SDS011;11067;48.788;9.208;2022-08-07T14:21:54;1.60;;;0.90;;
21810;SDS011;11067;48.788;9.208;2022-08-07T14:24:38;1.10;;;0.90;;
21810;SDS011;11067;48.788;9.208;2022-08-07T14:27:10;2.42;;;0.93;;
21810;SDS011;11067;48.788;9.208;2022-08-07T14:29:47;1.53;;;1.10;;
21810;SDS011;11067;48.788;9.208;2022-08-07T14:32:21;1.70;;;1.10;;
21810;SDS011;11067;48.788;9.208;2022-08-07T14:34:50;1.30;;;1.00;;
21810;SDS011;11067;48.788;9.208;2022-08-07T14:37:19;1.47;;;1.10;;
21810;SDS011;11067;48.788;9.208;2022-08-07T14:39:46;2.45;;;1.10;;
21810;SDS011;11067;48.788;9.208;2022-08-07T14:42:13;1.20;;;1.10;;
21810;SDS011;11067;48.788;9.208;2022-08-07T14:44:42;1.70;;;1.20;;
21810;SDS011;11067;48.788;9.208;2022-08-07T14:47:12;1.15;;;1.05;;
21810;SDS011;11067;48.788;9.208;2022-08-07T14:49:39;1.60;;;1.00;;
21810;SDS011;11067;48.788;9.208;2022-08-07T14:52:07;1.20;;;1.10;;
21810;SDS011;11067;48.788;9.208;2022-08-07T14:54:35;1.10;;;1.00;;
21810;SDS011;11067;48.788;9.208;2022-08-07T14:57:02;1.63;;;1.10;;
21810;SDS011;11067;48.788;9.208;2022-08-07T14:59:33;1.50;;;1.13;;
21810;SDS011;11067;48.788;9.208;2022-08-07T15:02:07;1.30;;;1.00;;
21810;SDS011;11067;48.788;9.208;2022-08-07T15:04:41;1.60;;;1.10;;
21810;SDS011;11067;48.788;9.208;2022-08-07T15:07:10;1.60;;;1.00;;
21810;SDS011;11067;48.788;9.208;2022-08-07T15:09:40;1.10;;;1.00;;
21810;SDS011;11067;48.788;9.208;2022-08-07T15:12:08;3.90;;;3.50;;
21810;SDS011;11067;48.788;9.208;2022-08-07T15:14:40;1.25;;;1.00;;
21810;SDS011;11067;48.788;9.208;2022-08-07T15:17:18;1.20;;;1.10;;
21810;SDS011;11067;48.788;9.208;2022-08-07T15:19:52;2.00;;;1.10;;
21810;SDS011;11067;48.788;9.208;2022-08-07T15:22:23;1.42;;;1.10;;
21810;SDS011;11067;48.788;9.208;2022-08-07T15:24:51;1.40;;;1.10;;
21810;SDS011;11067;48.788;9.208;2022-08-07T15:27:19;1.27;;;1.17;;
21810;SDS011;11067;48.788;9.208;2022-08-07T15:29:49;1.98;;;1.17;;
21810;SDS011;11067;48.788;9.208;2022-08-07T15:32:17;1.35;;;1.00;;
21810;SDS011;11067;48.788;9.208;2022-08-07T15:34:45;1.73;;;1.23;;
21810;SDS011;11067;48.788;9.208;2022-08-07T15:37:15;1.67;;;1.33;;
21810;SDS011;11067;48.788;9.208;2022-08-07T15:39:46;1.17;;;1.00;;
21810;SDS011;11067;48.788;9.208;2022-08-07T15:42:37;1.10;;;1.00;;
21810;SDS011;11067;48.788;9.208;2022-08-07T15:45:07;1.90;;;1.40;;
21810;SDS011;11067;48.788;9.208;2022-08-07T15:47:37;1.20;;;1.10;;
21810;SDS011;11067;48.788;9.208;2022-08-07T15:50:08;1.10;;;1.00;;
21810;SDS011;11067;48.788;9.208;2022-08-07T15:52:36;1.55;;;1.30;;
21810;SDS011;11067;48.788;9.208;2022-08-07T15:55:05;1.97;;;1.10;;
21810;SDS011;11067;48.788;9.208;2022-08-07T15:57:33;1.33;;;1.23;;
21810;SDS011;11067;48.788;9.208;2022-08-07T16:00:00;1.30;;;1.20;;
21810;SDS011;11067;48.788;9.208;2022-08-07T16:02:28;1.30;;;1.00;;
21810;SDS011;11067;48.788;9.208;2022-08-07T16:05:08;1.10;;;1.00;;
21810;SDS011;11067;48.788;9.208;2022-08-07T16:07:45;1.50;;;1.00;;
21810;SDS011;11067;48.788;9.208;2022-08-07T16:10:24;1.35;;;1.20;;
21810;SDS011;11067;48.788;9.208;2022-08-07T16:15:42;1.60;;;1.20;;
21810;SDS011;11067;48.788;9.208;2022-08-07T16:21:41;1.53;;;1.33;;
21810;SDS011;11067;48.788;9.208;2022-08-07T16:24:27;1.20;;;1.10;;
21810;SDS011;11067;48.788;9.208;2022-08-07T16:32:37;1.67;;;1.48;;
21810;SDS011;11067;48.788;9.208;2022-08-07T16:35:11;1.20;;;1.10;;
21810;SDS011;11067;48.788;9.208;2022-08-07T16:38:05;1.45;;;1.20;;
21810;SDS011;11067;48.788;9.208;2022-08-07T16:46:45;1.65;;;1.13;;
21810;SDS011;11067;48.788;9.208;2022-08-07T16:49:31;1.20;;;1.10;;
21810;SDS011;11067;48.788;9.208;2022-08-07T17:01:26;1.92;;;1.20;;
21810;SDS011;11067;48.788;9.208;2022-08-07T17:04:02;1.42;;;1.33;;
21810;SDS011;11067;48.788;9.208;2022-08-07T17:06:40;2.17;;;1.60;;
21810;SDS011;11067;48.788;9.208;2022-08-07T17:09:27;1.83;;;1.25;;
21810;SDS011;11067;48.788;9.208;2022-08-07T17:12:09;1.20;;;1.10;;
21810;SDS011;11067;48.788;9.208;2022-08-07T17:17:18;1.25;;;1.08;;
21810;SDS011;11067;48.788;9.208;2022-08-07T17:19:51;1.80;;;1.20;;
21810;SDS011;11067;48.788;9.208;2022-08-07T17:22:36;1.70;;;1.00;;
21810;SDS011;11067;48.788;9.208;2022-08-07T17:25:15;1.10;;;1.00;;
21810;SDS011;11067;48.788;9.208;2022-08-07T17:27:56;1.88;;;1.30;;
21810;SDS011;11067;48.788;9.208;2022-08-07T17:31:00;1.17;;;1.08;;
21810;SDS011;11067;48.788;9.208;2022-08-07T17:33:35;1.20;;;1.05;;
21810;SDS011;11067;48.788;9.208;2022-08-07T17:38:59;1.42;;;1.20;;
21810;SDS011;11067;48.788;9.208;2022-08-07T17:41:37;1.05;;;1.00;;
21810;SDS011;11067;48.788;9.208;2022-08-07T17:44:16;1.85;;;1.20;;
21810;SDS011;11067;48.788;9.208;2022-08-07T17:46:55;2.70;;;1.45;;
21810;SDS011;11067;48.788;9.208;2022-08-07T17:49:22;2.00;;;1.23;;
21810;SDS011;11067;48.788;9.208;2022-08-07T17:52:30;2.05;;;1.00;;
21810;SDS011;11067;48.788;9.208;2022-08-07T17:55:13;1.08;;;0.90;;
21810;SDS011;11067;48.788;9.208;2022-08-07T18:00:09;2.00;;;1.40;;
21810;SDS011;11067;48.788;9.208;2022-08-07T18:05:22;1.30;;;1.20;;
21810;SDS011;11067;48.788;9.208;2022-08-07T18:10:40;2.40;;;1.38;;
21810;SDS011;11067;48.788;9.208;2022-08-07T18:16:58;1.57;;;1.13;;
21810;SDS011;11067;48.788;9.208;2022-08-07T18:19:08;1.13;;;1.02;;